C6534 KGLS-KEFD
Flight info
| Callsign | C6534 |
|---|---|
| Flight time | 0h 12m |
| Altitude | 2000 |
| Route | VFR SOUTHWEST |
| Aircraft | AS65/L-VGD/C |
Departure
| Time | 2026-04-25 21:30 |
|---|---|
| Airport | Scholes International At Galveston Airport (KGLS) |
Arrival
| Time | 2026-04-25 21:43 |
|---|---|
| Airport | Ellington Airport (KEFD) |
| Time | Latitude | Longitude | Altitude | Speed | Heading |
|---|---|---|---|---|---|
| 2026-04-25 19:49 | 29.26843 | -94.85612 | 12 ft | 0 kts | 109° |
| 2026-04-25 19:53 | 29.26843 | -94.85606 | 21 ft | 0 kts | 137° |
| 2026-04-25 19:53 | 29.26842 | -94.85611 | 22 ft | 1 kts | 195° |
| 2026-04-25 19:54 | 29.26803 | -94.85621 | 178 ft | 21 kts | 194° |
| 2026-04-25 19:54 | 29.26536 | -94.85718 | 430 ft | 61 kts | 194° |
| 2026-04-25 19:54 | 29.26003 | -94.85915 | 387 ft | 100 kts | 195° |
| 2026-04-25 19:54 | 29.25761 | -94.85993 | 375 ft | 113 kts | 194° |
| 2026-04-25 19:55 | 29.24352 | -94.86474 | 387 ft | 124 kts | 207° |
| 2026-04-25 19:55 | 29.23709 | -94.87151 | 366 ft | 131 kts | 229° |
| 2026-04-25 19:55 | 29.23188 | -94.87988 | 366 ft | 129 kts | 234° |
| 2026-04-25 19:55 | 29.22651 | -94.88858 | 377 ft | 134 kts | 232° |
| 2026-04-25 19:56 | 29.22152 | -94.89738 | 362 ft | 132 kts | 233° |
| 2026-04-25 19:56 | 29.21681 | -94.90606 | 370 ft | 127 kts | 233° |
| 2026-04-25 19:56 | 29.21204 | -94.91497 | 366 ft | 133 kts | 232° |
| 2026-04-25 19:56 | 29.20753 | -94.92379 | 361 ft | 127 kts | 234° |
| 2026-04-25 19:57 | 29.20262 | -94.93246 | 368 ft | 129 kts | 231° |
| 2026-04-25 19:57 | 29.19774 | -94.94080 | 371 ft | 125 kts | 232° |
| 2026-04-25 19:57 | 29.19267 | -94.94887 | 365 ft | 128 kts | 230° |
| 2026-04-25 19:57 | 29.18746 | -94.95702 | 372 ft | 127 kts | 230° |
| 2026-04-25 19:58 | 29.18245 | -94.96545 | 366 ft | 129 kts | 230° |
| 2026-04-25 19:58 | 29.17740 | -94.97387 | 362 ft | 128 kts | 229° |
| 2026-04-25 19:58 | 29.17239 | -94.98224 | 361 ft | 126 kts | 230° |
| 2026-04-25 19:58 | 29.16726 | -94.99051 | 365 ft | 129 kts | 230° |
| 2026-04-25 19:59 | 29.16200 | -94.99871 | 361 ft | 128 kts | 230° |
| 2026-04-25 19:59 | 29.15672 | -95.00703 | 363 ft | 131 kts | 231° |
| 2026-04-25 19:59 | 29.15114 | -95.01550 | 404 ft | 132 kts | 230° |
| 2026-04-25 19:59 | 29.14585 | -95.02387 | 435 ft | 130 kts | 229° |
| 2026-04-25 20:00 | 29.14077 | -95.03232 | 462 ft | 128 kts | 229° |
| 2026-04-25 20:00 | 29.13912 | -95.03507 | 464 ft | 130 kts | 230° |
| 2026-04-25 20:00 | 29.13047 | -95.04918 | 471 ft | 127 kts | 230° |
| 2026-04-25 20:00 | 29.12528 | -95.05748 | 483 ft | 127 kts | 231° |
| 2026-04-25 20:01 | 29.11481 | -95.07388 | 482 ft | 127 kts | 230° |
| 2026-04-25 20:01 | 29.10952 | -95.08219 | 467 ft | 132 kts | 229° |
| 2026-04-25 20:01 | 29.10438 | -95.09061 | 475 ft | 129 kts | 231° |
| 2026-04-25 20:02 | 29.09924 | -95.09882 | 466 ft | 127 kts | 229° |
| 2026-04-25 20:02 | 29.09303 | -95.10607 | 471 ft | 127 kts | 219° |
| 2026-04-25 20:02 | 29.08602 | -95.11207 | 466 ft | 128 kts | 212° |
| 2026-04-25 20:02 | 29.07851 | -95.11730 | 467 ft | 124 kts | 211° |
| 2026-04-25 20:03 | 29.07110 | -95.12227 | 466 ft | 123 kts | 211° |
| 2026-04-25 20:03 | 29.06474 | -95.12929 | 457 ft | 131 kts | 229° |
| 2026-04-25 20:03 | 29.05941 | -95.13749 | 464 ft | 127 kts | 232° |
| 2026-04-25 20:03 | 29.05427 | -95.14578 | 460 ft | 127 kts | 232° |
| 2026-04-25 20:04 | 29.04894 | -95.15413 | 462 ft | 132 kts | 232° |
| 2026-04-25 20:04 | 29.04333 | -95.16222 | 462 ft | 128 kts | 230° |
| 2026-04-25 20:04 | 29.03784 | -95.17020 | 463 ft | 128 kts | 229° |
| 2026-04-25 20:04 | 29.03249 | -95.17821 | 462 ft | 125 kts | 229° |
| 2026-04-25 20:05 | 29.02699 | -95.18624 | 464 ft | 130 kts | 228° |
| 2026-04-25 20:05 | 29.02153 | -95.19437 | 458 ft | 130 kts | 229° |
| 2026-04-25 20:05 | 29.01620 | -95.20244 | 467 ft | 124 kts | 227° |
| 2026-04-25 20:05 | 29.01079 | -95.21061 | 463 ft | 131 kts | 226° |
| 2026-04-25 20:06 | 29.00469 | -95.21794 | 466 ft | 126 kts | 221° |
| 2026-04-25 20:06 | 28.99852 | -95.22511 | 458 ft | 127 kts | 221° |
| 2026-04-25 20:06 | 28.99242 | -95.23218 | 458 ft | 126 kts | 222° |
| 2026-04-25 20:06 | 28.98612 | -95.23926 | 467 ft | 124 kts | 221° |
| 2026-04-25 20:07 | 28.97994 | -95.24640 | 453 ft | 131 kts | 221° |
| 2026-04-25 20:07 | 28.97355 | -95.25356 | 463 ft | 127 kts | 222° |
| 2026-04-25 20:07 | 28.96715 | -95.26039 | 463 ft | 125 kts | 221° |
| 2026-04-25 20:07 | 28.96074 | -95.26717 | 458 ft | 126 kts | 221° |
| 2026-04-25 20:08 | 28.95428 | -95.27391 | 461 ft | 127 kts | 221° |
| 2026-04-25 20:08 | 28.94793 | -95.28089 | 464 ft | 125 kts | 222° |
| 2026-04-25 20:08 | 28.94172 | -95.28768 | 447 ft | 127 kts | 221° |
| 2026-04-25 20:08 | 28.93506 | -95.29468 | 474 ft | 127 kts | 221° |
| 2026-04-25 20:09 | 28.92866 | -95.30157 | 465 ft | 126 kts | 222° |
| 2026-04-25 20:09 | 28.92235 | -95.30829 | 454 ft | 126 kts | 221° |
| 2026-04-25 20:09 | 28.91795 | -95.31289 | 463 ft | 131 kts | 223° |
| 2026-04-25 20:09 | 28.91146 | -95.31965 | 465 ft | 123 kts | 221° |
| 2026-04-25 20:10 | 28.90512 | -95.32659 | 459 ft | 128 kts | 220° |
| 2026-04-25 20:10 | 28.89890 | -95.33375 | 465 ft | 126 kts | 222° |
| 2026-04-25 20:10 | 28.89266 | -95.34102 | 461 ft | 131 kts | 221° |
| 2026-04-25 20:10 | 28.88724 | -95.34913 | 457 ft | 129 kts | 233° |
| 2026-04-25 20:11 | 28.88256 | -95.35775 | 464 ft | 124 kts | 236° |
| 2026-04-25 20:11 | 28.87841 | -95.36652 | 468 ft | 125 kts | 236° |
| 2026-04-25 20:11 | 28.87438 | -95.37517 | 453 ft | 128 kts | 236° |
| 2026-04-25 20:11 | 28.86995 | -95.38414 | 459 ft | 126 kts | 235° |
| 2026-04-25 20:12 | 28.86580 | -95.39298 | 460 ft | 127 kts | 238° |
| 2026-04-25 20:12 | 28.86152 | -95.40182 | 456 ft | 127 kts | 235° |
| 2026-04-25 20:12 | 28.85724 | -95.41078 | 463 ft | 129 kts | 238° |
| 2026-04-25 20:12 | 28.85419 | -95.41654 | 459 ft | 128 kts | 237° |
| 2026-04-25 20:13 | 28.84790 | -95.42824 | 476 ft | 127 kts | 239° |
| 2026-04-25 20:13 | 28.84413 | -95.43756 | 450 ft | 135 kts | 244° |
| 2026-04-25 20:13 | 28.84072 | -95.44731 | 467 ft | 129 kts | 247° |
| 2026-04-25 20:13 | 28.83742 | -95.45709 | 456 ft | 134 kts | 245° |
| 2026-04-25 20:14 | 28.83403 | -95.46692 | 455 ft | 135 kts | 244° |
| 2026-04-25 20:14 | 28.83044 | -95.47696 | 467 ft | 135 kts | 244° |
| 2026-04-25 20:14 | 28.82689 | -95.48681 | 455 ft | 136 kts | 244° |
| 2026-04-25 20:14 | 28.82323 | -95.49672 | 464 ft | 133 kts | 245° |
| 2026-04-25 20:15 | 28.81958 | -95.50654 | 451 ft | 138 kts | 244° |
| 2026-04-25 20:15 | 28.81583 | -95.51642 | 465 ft | 132 kts | 242° |
| 2026-04-25 20:15 | 28.81218 | -95.52604 | 449 ft | 135 kts | 242° |
| 2026-04-25 20:15 | 28.80835 | -95.53587 | 463 ft | 135 kts | 243° |
| 2026-04-25 20:16 | 28.80454 | -95.54570 | 455 ft | 137 kts | 242° |
| 2026-04-25 20:16 | 28.80075 | -95.55553 | 461 ft | 133 kts | 243° |
| 2026-04-25 20:16 | 28.79711 | -95.56514 | 456 ft | 133 kts | 245° |
| 2026-04-25 20:16 | 28.79347 | -95.57472 | 452 ft | 132 kts | 244° |
| 2026-04-25 20:17 | 28.78967 | -95.58447 | 459 ft | 133 kts | 244° |
| 2026-04-25 20:17 | 28.78596 | -95.59406 | 450 ft | 135 kts | 244° |
| 2026-04-25 20:17 | 28.78225 | -95.60364 | 451 ft | 130 kts | 244° |
| 2026-04-25 20:17 | 28.77847 | -95.61329 | 452 ft | 135 kts | 242° |
| 2026-04-25 20:18 | 28.77461 | -95.62311 | 456 ft | 136 kts | 241° |
| 2026-04-25 20:18 | 28.77088 | -95.63277 | 446 ft | 134 kts | 241° |
| 2026-04-25 20:18 | 28.76705 | -95.64251 | 447 ft | 136 kts | 244° |
| 2026-04-25 20:18 | 28.76314 | -95.65238 | 455 ft | 137 kts | 243° |
| 2026-04-25 20:19 | 28.75927 | -95.66234 | 456 ft | 140 kts | 244° |
| 2026-04-25 20:19 | 28.75542 | -95.67238 | 456 ft | 137 kts | 244° |
| 2026-04-25 20:19 | 28.75160 | -95.68237 | 457 ft | 136 kts | 245° |
| 2026-04-25 20:19 | 28.74789 | -95.69213 | 448 ft | 134 kts | 243° |
| 2026-04-25 20:20 | 28.74411 | -95.70188 | 456 ft | 133 kts | 245° |
| 2026-04-25 20:20 | 28.74030 | -95.71166 | 455 ft | 137 kts | 245° |
| 2026-04-25 20:20 | 28.73651 | -95.72142 | 453 ft | 135 kts | 245° |
| 2026-04-25 20:20 | 28.73280 | -95.73107 | 448 ft | 132 kts | 243° |
| 2026-04-25 20:21 | 28.72901 | -95.74070 | 452 ft | 132 kts | 242° |
| 2026-04-25 20:21 | 28.72516 | -95.75032 | 458 ft | 136 kts | 243° |
| 2026-04-25 20:21 | 28.72131 | -95.76008 | 447 ft | 137 kts | 241° |
| 2026-04-25 20:21 | 28.71735 | -95.77007 | 457 ft | 137 kts | 243° |
| 2026-04-25 20:22 | 28.71343 | -95.78012 | 452 ft | 139 kts | 244° |
| 2026-04-25 20:22 | 28.71087 | -95.78671 | 454 ft | 137 kts | 242° |
| 2026-04-25 20:22 | 28.70566 | -95.80009 | 455 ft | 138 kts | 245° |
| 2026-04-25 20:22 | 28.70183 | -95.81004 | 451 ft | 136 kts | 246° |
| 2026-04-25 20:23 | 28.69799 | -95.81991 | 447 ft | 139 kts | 244° |
| 2026-04-25 20:23 | 28.69415 | -95.82982 | 451 ft | 134 kts | 243° |
| 2026-04-25 20:23 | 28.69040 | -95.83951 | 451 ft | 135 kts | 245° |
| 2026-04-25 20:23 | 28.68669 | -95.84917 | 447 ft | 134 kts | 242° |
| 2026-04-25 20:24 | 28.68289 | -95.85892 | 451 ft | 133 kts | 243° |
| 2026-04-25 20:24 | 28.67910 | -95.86865 | 447 ft | 135 kts | 240° |
| 2026-04-25 20:24 | 28.67520 | -95.87851 | 436 ft | 138 kts | 240° |
| 2026-04-25 20:24 | 28.67128 | -95.88836 | 452 ft | 137 kts | 241° |
| 2026-04-25 20:25 | 28.66741 | -95.89827 | 443 ft | 139 kts | 242° |
| 2026-04-25 20:25 | 28.66346 | -95.90836 | 446 ft | 140 kts | 245° |
| 2026-04-25 20:25 | 28.65952 | -95.91848 | 448 ft | 139 kts | 243° |
| 2026-04-25 20:25 | 28.65558 | -95.92862 | 453 ft | 138 kts | 245° |
| 2026-04-25 20:26 | 28.65183 | -95.93839 | 442 ft | 132 kts | 244° |
| 2026-04-25 20:26 | 28.64801 | -95.94814 | 448 ft | 135 kts | 245° |
| 2026-04-25 20:26 | 28.64433 | -95.95777 | 440 ft | 132 kts | 247° |
| 2026-04-25 20:26 | 28.64067 | -95.96731 | 447 ft | 129 kts | 244° |
| 2026-04-25 20:27 | 28.63745 | -95.97598 | 448 ft | 109 kts | 244° |
| 2026-04-25 20:27 | 28.63477 | -95.98338 | 447 ft | 93 kts | 238° |
| 2026-04-25 20:27 | 28.63252 | -95.98974 | 441 ft | 80 kts | 242° |
| 2026-04-25 20:27 | 28.63043 | -95.99536 | 432 ft | 77 kts | 241° |
| 2026-04-25 20:28 | 28.62831 | -96.00085 | 429 ft | 76 kts | 241° |
| 2026-04-25 20:28 | 28.62610 | -96.00641 | 433 ft | 77 kts | 242° |
| 2026-04-25 20:28 | 28.62387 | -96.01196 | 440 ft | 78 kts | 238° |
| 2026-04-25 20:28 | 28.62151 | -96.01774 | 433 ft | 81 kts | 238° |
| 2026-04-25 20:29 | 28.61909 | -96.02316 | 402 ft | 74 kts | 223° |
| 2026-04-25 20:29 | 28.61507 | -96.02665 | 249 ft | 72 kts | 216° |
| 2026-04-25 20:29 | 28.61282 | -96.03183 | 155 ft | 79 kts | 256° |
| 2026-04-25 20:29 | 28.61060 | -96.03723 | 121 ft | 75 kts | 224° |
| 2026-04-25 20:30 | 28.60625 | -96.03983 | 105 ft | 69 kts | 187° |
| 2026-04-25 20:30 | 28.60180 | -96.03898 | 94 ft | 63 kts | 155° |
| 2026-04-25 20:30 | 28.59871 | -96.03522 | 89 ft | 70 kts | 122° |
| 2026-04-25 20:30 | 28.59814 | -96.02969 | 97 ft | 72 kts | 92° |
| 2026-04-25 20:31 | 28.59964 | -96.02418 | 152 ft | 74 kts | 77° |
| 2026-04-25 20:31 | 28.60152 | -96.01874 | 168 ft | 74 kts | 79° |
| 2026-04-25 20:31 | 28.60419 | -96.01354 | 177 ft | 77 kts | 60° |
| 2026-04-25 20:31 | 28.60795 | -96.00916 | 177 ft | 81 kts | 48° |
| 2026-04-25 20:32 | 28.61341 | -96.00686 | 184 ft | 85 kts | 15° |
| 2026-04-25 20:32 | 28.61931 | -96.00666 | 183 ft | 85 kts | 3° |
| 2026-04-25 20:32 | 28.62510 | -96.00732 | 182 ft | 84 kts | 349° |
| 2026-04-25 20:32 | 28.63002 | -96.01095 | 186 ft | 86 kts | 309° |
| 2026-04-25 20:33 | 28.63228 | -96.01693 | 183 ft | 81 kts | 273° |
| 2026-04-25 20:33 | 28.63234 | -96.02317 | 182 ft | 79 kts | 264° |
| 2026-04-25 20:33 | 28.63252 | -96.02947 | 184 ft | 81 kts | 264° |
| 2026-04-25 20:33 | 28.63268 | -96.03377 | 184 ft | 83 kts | 264° |
| 2026-04-25 20:34 | 28.63246 | -96.04240 | 189 ft | 78 kts | 245° |
| 2026-04-25 20:34 | 28.62973 | -96.04707 | 180 ft | 69 kts | 212° |
| 2026-04-25 20:34 | 28.62551 | -96.04906 | 184 ft | 64 kts | 185° |
| 2026-04-25 20:34 | 28.62115 | -96.04937 | 182 ft | 62 kts | 179° |
| 2026-04-25 20:35 | 28.61680 | -96.04960 | 191 ft | 63 kts | 180° |
| 2026-04-25 20:35 | 28.61240 | -96.04977 | 182 ft | 64 kts | 180° |
| 2026-04-25 20:35 | 28.60800 | -96.04989 | 183 ft | 62 kts | 179° |
| 2026-04-25 20:35 | 28.60368 | -96.04985 | 180 ft | 64 kts | 171° |
| 2026-04-25 20:36 | 28.59978 | -96.04749 | 182 ft | 66 kts | 139° |
| 2026-04-25 20:36 | 28.59777 | -96.04260 | 190 ft | 72 kts | 108° |
| 2026-04-25 20:36 | 28.59724 | -96.03709 | 183 ft | 69 kts | 99° |
| 2026-04-25 20:36 | 28.59710 | -96.03160 | 182 ft | 71 kts | 99° |
| 2026-04-25 20:37 | 28.59712 | -96.02606 | 183 ft | 69 kts | 99° |
| 2026-04-25 20:37 | 28.59719 | -96.02051 | 192 ft | 71 kts | 97° |
| 2026-04-25 20:37 | 28.59727 | -96.01487 | 183 ft | 71 kts | 99° |
| 2026-04-25 20:37 | 28.59733 | -96.00923 | 183 ft | 72 kts | 97° |
| 2026-04-25 20:38 | 28.59867 | -96.00361 | 188 ft | 77 kts | 69° |
| 2026-04-25 20:38 | 28.60304 | -95.99981 | 181 ft | 83 kts | 26° |
| 2026-04-25 20:38 | 28.60876 | -95.99854 | 182 ft | 85 kts | 10° |
| 2026-04-25 20:38 | 28.61458 | -95.99841 | 182 ft | 83 kts | 5° |
| 2026-04-25 20:39 | 28.62043 | -95.99870 | 183 ft | 85 kts | 1° |
| 2026-04-25 20:39 | 28.62630 | -95.99905 | 182 ft | 85 kts | 2° |
| 2026-04-25 20:39 | 28.63232 | -95.99936 | 184 ft | 87 kts | 2° |
| 2026-04-25 20:39 | 28.63436 | -95.99944 | 185 ft | 86 kts | 2° |
| 2026-04-25 20:40 | 28.64424 | -95.99968 | 190 ft | 85 kts | 3° |
| 2026-04-25 20:40 | 28.65012 | -95.99974 | 179 ft | 85 kts | 4° |
| 2026-04-25 20:40 | 28.65590 | -96.00124 | 180 ft | 89 kts | 324° |
| 2026-04-25 20:40 | 28.65875 | -96.00702 | 183 ft | 82 kts | 268° |
| 2026-04-25 20:41 | 28.65665 | -96.01231 | 183 ft | 71 kts | 212° |
| 2026-04-25 20:41 | 28.65232 | -96.01432 | 181 ft | 66 kts | 193° |
| 2026-04-25 20:41 | 28.64795 | -96.01391 | 189 ft | 59 kts | 173° |
| 2026-04-25 20:41 | 28.64437 | -96.01304 | 182 ft | 45 kts | 164° |
| 2026-04-25 20:42 | 28.64136 | -96.01219 | 179 ft | 47 kts | 173° |
| 2026-04-25 20:42 | 28.63826 | -96.01240 | 183 ft | 44 kts | 184° |
| 2026-04-25 20:42 | 28.63580 | -96.01068 | 181 ft | 52 kts | 123° |
| 2026-04-25 20:42 | 28.63477 | -96.00693 | 181 ft | 49 kts | 124° |
| 2026-04-25 20:43 | 28.63273 | -96.00403 | 181 ft | 45 kts | 143° |
| 2026-04-25 20:43 | 28.63005 | -96.00248 | 178 ft | 45 kts | 166° |
| 2026-04-25 20:43 | 28.62679 | -96.00200 | 181 ft | 48 kts | 173° |
| 2026-04-25 20:43 | 28.62375 | -96.00368 | 180 ft | 54 kts | 221° |
| 2026-04-25 20:44 | 28.62284 | -96.00807 | 181 ft | 58 kts | 257° |
| 2026-04-25 20:44 | 28.62243 | -96.01263 | 180 ft | 59 kts | 256° |
| 2026-04-25 20:44 | 28.62196 | -96.01735 | 179 ft | 60 kts | 256° |
| 2026-04-25 20:44 | 28.62090 | -96.02179 | 178 ft | 57 kts | 225° |
| 2026-04-25 20:45 | 28.61754 | -96.02214 | 179 ft | 51 kts | 150° |
| 2026-04-25 20:45 | 28.61697 | -96.01826 | 178 ft | 59 kts | 76° |
| 2026-04-25 20:45 | 28.62099 | -96.01642 | 182 ft | 70 kts | 353° |
| 2026-04-25 20:45 | 28.62399 | -96.02017 | 178 ft | 65 kts | 270° |
| 2026-04-25 20:46 | 28.62208 | -96.02363 | 183 ft | 47 kts | 192° |
| 2026-04-25 20:46 | 28.61968 | -96.02190 | 181 ft | 49 kts | 122° |
| 2026-04-25 20:46 | 28.62136 | -96.01808 | 178 ft | 67 kts | 41° |
| 2026-04-25 20:46 | 28.62587 | -96.01872 | 178 ft | 69 kts | 320° |
| 2026-04-25 20:47 | 28.62679 | -96.02346 | 180 ft | 59 kts | 239° |
| 2026-04-25 20:47 | 28.62370 | -96.02495 | 179 ft | 49 kts | 164° |
| 2026-04-25 20:47 | 28.62110 | -96.02298 | 200 ft | 37 kts | 135° |
| 2026-04-25 20:47 | 28.61986 | -96.02210 | 181 ft | 4 kts | 84° |
| 2026-04-25 20:48 | 28.61987 | -96.02212 | 141 ft | 1 kts | 84° |
| 2026-04-25 20:48 | 28.61988 | -96.02211 | 123 ft | 0 kts | 84° |
| 2026-04-25 20:48 | 28.61988 | -96.02210 | 95 ft | 0 kts | 85° |
| 2026-04-25 20:49 | 28.61995 | -96.02204 | 81 ft | 2 kts | 85° |
| 2026-04-25 20:49 | 28.61996 | -96.02196 | 85 ft | 1 kts | 86° |
| 2026-04-25 20:49 | 28.61998 | -96.02172 | 75 ft | 4 kts | 86° |
| 2026-04-25 20:49 | 28.61999 | -96.02150 | 74 ft | 2 kts | 85° |
| 2026-04-25 20:50 | 28.61999 | -96.02134 | 76 ft | 2 kts | 85° |
| 2026-04-25 20:50 | 28.62001 | -96.02118 | 75 ft | 2 kts | 42° |
| 2026-04-25 20:50 | 28.62013 | -96.02113 | 69 ft | 2 kts | 339° |
| 2026-04-25 20:50 | 28.62023 | -96.02126 | 125 ft | 5 kts | 304° |
| 2026-04-25 20:51 | 28.62047 | -96.02186 | 259 ft | 8 kts | 304° |
| 2026-04-25 20:51 | 28.62077 | -96.02233 | 228 ft | 7 kts | 304° |
| 2026-04-25 20:51 | 28.62107 | -96.02279 | 237 ft | 7 kts | 304° |
| 2026-04-25 20:51 | 28.62133 | -96.02328 | 237 ft | 7 kts | 304° |
| 2026-04-25 20:52 | 28.62179 | -96.02404 | 237 ft | 25 kts | 305° |
| 2026-04-25 20:52 | 28.62222 | -96.02471 | 238 ft | 39 kts | 305° |
| 2026-04-25 20:52 | 28.62805 | -96.03377 | 239 ft | 120 kts | 302° |
| 2026-04-25 20:52 | 28.63232 | -96.04167 | 251 ft | 113 kts | 297° |
| 2026-04-25 20:53 | 28.63590 | -96.04922 | 246 ft | 104 kts | 296° |
| 2026-04-25 20:53 | 28.63932 | -96.05605 | 243 ft | 94 kts | 297° |
| 2026-04-25 20:53 | 28.64240 | -96.06217 | 241 ft | 84 kts | 297° |
| 2026-04-25 20:53 | 28.64542 | -96.06790 | 252 ft | 79 kts | 253° |
| 2026-04-25 20:54 | 28.64683 | -96.07110 | 250 ft | 57 kts | 188° |
| 2026-04-25 20:54 | 28.64737 | -96.07417 | 198 ft | 21 kts | 146° |
| 2026-04-25 20:54 | 28.64624 | -96.07297 | 215 ft | 31 kts | 142° |
| 2026-04-25 20:54 | 28.64547 | -96.06991 | 223 ft | 50 kts | 116° |
| 2026-04-25 20:55 | 28.64467 | -96.06756 | 220 ft | 44 kts | 142° |
| 2026-04-25 20:55 | 28.64264 | -96.06728 | 220 ft | 16 kts | 290° |
| 2026-04-25 20:55 | 28.64303 | -96.06739 | 194 ft | 4 kts | 341° |
| 2026-04-25 20:55 | 28.64299 | -96.06839 | 205 ft | 16 kts | 8° |
| 2026-04-25 20:56 | 28.64345 | -96.06867 | 205 ft | 10 kts | 49° |
| 2026-04-25 20:56 | 28.64460 | -96.06844 | 204 ft | 23 kts | 92° |
| 2026-04-25 20:56 | 28.64613 | -96.06755 | 215 ft | 30 kts | 141° |
| 2026-04-25 20:56 | 28.64650 | -96.06507 | 220 ft | 32 kts | 210° |
| 2026-04-25 20:57 | 28.64561 | -96.06436 | 204 ft | 4 kts | 259° |
| 2026-04-25 20:57 | 28.64573 | -96.06446 | 200 ft | 2 kts | 261° |
| 2026-04-25 20:57 | 28.64554 | -96.06459 | 210 ft | 6 kts | 260° |
| 2026-04-25 20:57 | 28.64512 | -96.06477 | 208 ft | 7 kts | 260° |
| 2026-04-25 20:58 | 28.64464 | -96.06505 | 209 ft | 8 kts | 260° |
| 2026-04-25 20:58 | 28.64436 | -96.06552 | 204 ft | 8 kts | 343° |
| 2026-04-25 20:58 | 28.64534 | -96.06576 | 210 ft | 24 kts | 345° |
| 2026-04-25 20:58 | 28.64746 | -96.06564 | 213 ft | 28 kts | 96° |
| 2026-04-25 20:59 | 28.64701 | -96.06338 | 210 ft | 51 kts | 163° |
| 2026-04-25 20:59 | 28.64253 | -96.06406 | 214 ft | 81 kts | 223° |
| 2026-04-25 20:59 | 28.64094 | -96.07008 | 216 ft | 88 kts | 282° |
| 2026-04-25 20:59 | 28.63917 | -96.07578 | 202 ft | 79 kts | 198° |
| 2026-04-25 21:00 | 28.63462 | -96.07210 | 200 ft | 107 kts | 111° |
| 2026-04-25 21:00 | 28.63593 | -96.06624 | 204 ft | 122 kts | 63° |
| 2026-04-25 21:00 | 28.64692 | -96.04873 | 217 ft | 105 kts | 74° |
| 2026-04-25 21:01 | 28.64808 | -96.04119 | 211 ft | 93 kts | 93° |
| 2026-04-25 21:01 | 28.65049 | -96.03433 | 208 ft | 97 kts | 62° |
| 2026-04-25 21:01 | 28.65485 | -96.02871 | 209 ft | 94 kts | 55° |
| 2026-04-25 21:01 | 28.65946 | -96.02327 | 208 ft | 95 kts | 56° |
| 2026-04-25 21:02 | 28.66258 | -96.01696 | 210 ft | 91 kts | 76° |
| 2026-04-25 21:02 | 28.66523 | -96.01047 | 207 ft | 90 kts | 71° |
| 2026-04-25 21:02 | 28.66790 | -96.00403 | 198 ft | 90 kts | 72° |
| 2026-04-25 21:02 | 28.67057 | -95.99765 | 204 ft | 89 kts | 72° |
| 2026-04-25 21:03 | 28.67318 | -95.99134 | 200 ft | 88 kts | 71° |
| 2026-04-25 21:03 | 28.67577 | -95.98515 | 196 ft | 88 kts | 75° |
| 2026-04-25 21:03 | 28.67863 | -95.97899 | 200 ft | 89 kts | 64° |
| 2026-04-25 21:03 | 28.68215 | -95.97412 | 201 ft | 69 kts | 57° |
| 2026-04-25 21:04 | 28.68469 | -95.97058 | 202 ft | 46 kts | 66° |
| 2026-04-25 21:04 | 28.68590 | -95.96804 | 192 ft | 29 kts | 71° |
| 2026-04-25 21:04 | 28.68728 | -95.96593 | 195 ft | 39 kts | 60° |
| 2026-04-25 21:04 | 28.68956 | -95.96337 | 203 ft | 54 kts | 59° |
| 2026-04-25 21:05 | 28.69309 | -95.96045 | 202 ft | 72 kts | 40° |
| 2026-04-25 21:05 | 28.69765 | -95.95747 | 202 ft | 75 kts | 38° |
| 2026-04-25 21:05 | 28.70260 | -95.95579 | 208 ft | 73 kts | 1° |
| 2026-04-25 21:05 | 28.70643 | -95.95828 | 200 ft | 58 kts | 298° |
| 2026-04-25 21:06 | 28.70662 | -95.96182 | 202 ft | 37 kts | 240° |
| 2026-04-25 21:06 | 28.70476 | -95.96261 | 202 ft | 31 kts | 182° |
| 2026-04-25 21:06 | 28.70295 | -95.96151 | 122 ft | 25 kts | 153° |
| 2026-04-25 21:06 | 28.70225 | -95.96121 | 52 ft | 5 kts | 142° |
| 2026-04-25 21:07 | 28.70179 | -95.96074 | 21 ft | 3 kts | 148° |
| 2026-04-25 21:07 | 28.70176 | -95.96071 | 25 ft | 2 kts | 148° |
| 2026-04-25 21:07 | 28.70175 | -95.96070 | 17 ft | 0 kts | 148° |
| 2026-04-25 21:09 | 28.70169 | -95.96069 | 91 ft | 5 kts | 152° |
| 2026-04-25 21:09 | 28.70018 | -95.95971 | 349 ft | 45 kts | 153° |
| 2026-04-25 21:10 | 28.69647 | -95.95660 | 420 ft | 90 kts | 134° |
| 2026-04-25 21:10 | 28.69408 | -95.94815 | 421 ft | 135 kts | 101° |
| 2026-04-25 21:10 | 28.69505 | -95.93696 | 467 ft | 140 kts | 87° |
| 2026-04-25 21:10 | 28.69716 | -95.92624 | 454 ft | 139 kts | 84° |
| 2026-04-25 21:11 | 28.69929 | -95.91560 | 447 ft | 140 kts | 83° |
| 2026-04-25 21:11 | 28.70158 | -95.90495 | 454 ft | 140 kts | 79° |
| 2026-04-25 21:11 | 28.70448 | -95.89435 | 455 ft | 141 kts | 79° |
| 2026-04-25 21:11 | 28.70764 | -95.88376 | 455 ft | 141 kts | 79° |
| 2026-04-25 21:12 | 28.71076 | -95.87296 | 463 ft | 143 kts | 78° |
| 2026-04-25 21:12 | 28.71374 | -95.86222 | 460 ft | 143 kts | 78° |
| 2026-04-25 21:12 | 28.71669 | -95.85160 | 458 ft | 135 kts | 80° |
| 2026-04-25 21:12 | 28.71859 | -95.84485 | 449 ft | 138 kts | 78° |
| 2026-04-25 21:13 | 28.72225 | -95.83076 | 457 ft | 138 kts | 80° |
| 2026-04-25 21:13 | 28.72500 | -95.82040 | 452 ft | 138 kts | 80° |
| 2026-04-25 21:13 | 28.72791 | -95.80991 | 444 ft | 141 kts | 79° |
| 2026-04-25 21:13 | 28.73091 | -95.79956 | 456 ft | 135 kts | 78° |
| 2026-04-25 21:14 | 28.73389 | -95.78911 | 463 ft | 138 kts | 79° |
| 2026-04-25 21:14 | 28.73678 | -95.77860 | 456 ft | 141 kts | 79° |
| 2026-04-25 21:14 | 28.73976 | -95.76795 | 463 ft | 140 kts | 78° |
| 2026-04-25 21:14 | 28.74206 | -95.75715 | 451 ft | 143 kts | 88° |
| 2026-04-25 21:15 | 28.74319 | -95.74614 | 466 ft | 138 kts | 92° |
| 2026-04-25 21:15 | 28.74408 | -95.73507 | 471 ft | 139 kts | 91° |
| 2026-04-25 21:15 | 28.74459 | -95.72395 | 458 ft | 144 kts | 92° |
| 2026-04-25 21:15 | 28.74509 | -95.71300 | 462 ft | 135 kts | 92° |
| 2026-04-25 21:16 | 28.74568 | -95.70206 | 460 ft | 140 kts | 92° |
| 2026-04-25 21:16 | 28.74636 | -95.69104 | 457 ft | 139 kts | 92° |
| 2026-04-25 21:16 | 28.74718 | -95.68004 | 461 ft | 140 kts | 90° |
| 2026-04-25 21:16 | 28.74852 | -95.66905 | 458 ft | 140 kts | 87° |
| 2026-04-25 21:17 | 28.75036 | -95.65838 | 460 ft | 137 kts | 82° |
| 2026-04-25 21:17 | 28.75296 | -95.64775 | 472 ft | 137 kts | 78° |
| 2026-04-25 21:17 | 28.75660 | -95.63766 | 452 ft | 141 kts | 73° |
| 2026-04-25 21:17 | 28.76090 | -95.62754 | 456 ft | 143 kts | 70° |
| 2026-04-25 21:18 | 28.76581 | -95.61759 | 464 ft | 144 kts | 66° |
| 2026-04-25 21:18 | 28.77102 | -95.60781 | 471 ft | 142 kts | 65° |
| 2026-04-25 21:18 | 28.77622 | -95.59818 | 465 ft | 143 kts | 65° |
| 2026-04-25 21:18 | 28.78141 | -95.58838 | 458 ft | 148 kts | 65° |
| 2026-04-25 21:19 | 28.78666 | -95.57846 | 468 ft | 144 kts | 65° |
| 2026-04-25 21:19 | 28.79174 | -95.56865 | 465 ft | 144 kts | 66° |
| 2026-04-25 21:19 | 28.79661 | -95.55887 | 459 ft | 145 kts | 65° |
| 2026-04-25 21:19 | 28.80152 | -95.54872 | 455 ft | 146 kts | 66° |
| 2026-04-25 21:20 | 28.80652 | -95.53859 | 465 ft | 145 kts | 66° |
| 2026-04-25 21:20 | 28.80993 | -95.53177 | 461 ft | 147 kts | 65° |
| 2026-04-25 21:20 | 28.81650 | -95.51876 | 467 ft | 141 kts | 64° |
| 2026-04-25 21:20 | 28.82143 | -95.50889 | 462 ft | 145 kts | 66° |
| 2026-04-25 21:21 | 28.82653 | -95.49898 | 462 ft | 145 kts | 65° |
| 2026-04-25 21:21 | 28.83164 | -95.48911 | 471 ft | 143 kts | 68° |
| 2026-04-25 21:21 | 28.83615 | -95.47903 | 471 ft | 143 kts | 70° |
| 2026-04-25 21:21 | 28.84047 | -95.46878 | 466 ft | 145 kts | 71° |
| 2026-04-25 21:22 | 28.84494 | -95.45860 | 468 ft | 143 kts | 70° |
| 2026-04-25 21:22 | 28.84891 | -95.44801 | 459 ft | 149 kts | 77° |
| 2026-04-25 21:22 | 28.85258 | -95.43710 | 471 ft | 144 kts | 75° |
| 2026-04-25 21:22 | 28.85561 | -95.42630 | 467 ft | 142 kts | 78° |
| 2026-04-25 21:23 | 28.85857 | -95.41556 | 462 ft | 143 kts | 79° |
| 2026-04-25 21:23 | 28.86168 | -95.40494 | 462 ft | 140 kts | 77° |
| 2026-04-25 21:23 | 28.86476 | -95.39431 | 468 ft | 141 kts | 77° |
| 2026-04-25 21:23 | 28.86811 | -95.38377 | 467 ft | 143 kts | 72° |
| 2026-04-25 21:24 | 28.87321 | -95.37411 | 456 ft | 145 kts | 62° |
| 2026-04-25 21:24 | 28.87946 | -95.36505 | 474 ft | 145 kts | 58° |
| 2026-04-25 21:24 | 28.88586 | -95.35605 | 467 ft | 147 kts | 58° |
| 2026-04-25 21:24 | 28.89239 | -95.34682 | 464 ft | 152 kts | 58° |
| 2026-04-25 21:25 | 28.89891 | -95.33753 | 471 ft | 148 kts | 57° |
| 2026-04-25 21:25 | 28.90522 | -95.32810 | 466 ft | 151 kts | 58° |
| 2026-04-25 21:25 | 28.91139 | -95.31873 | 465 ft | 148 kts | 58° |
| 2026-04-25 21:25 | 28.91746 | -95.30922 | 471 ft | 145 kts | 60° |
| 2026-04-25 21:26 | 28.92375 | -95.29974 | 467 ft | 153 kts | 58° |
| 2026-04-25 21:26 | 28.93001 | -95.29032 | 466 ft | 148 kts | 57° |
| 2026-04-25 21:26 | 28.93611 | -95.28100 | 461 ft | 146 kts | 59° |
| 2026-04-25 21:26 | 28.94292 | -95.27184 | 466 ft | 152 kts | 54° |
| 2026-04-25 21:27 | 28.95003 | -95.26320 | 464 ft | 149 kts | 52° |
| 2026-04-25 21:27 | 28.95705 | -95.25437 | 466 ft | 150 kts | 53° |
| 2026-04-25 21:27 | 28.96409 | -95.24557 | 461 ft | 150 kts | 53° |
| 2026-04-25 21:27 | 28.97120 | -95.23692 | 465 ft | 147 kts | 53° |
| 2026-04-25 21:28 | 28.97910 | -95.22953 | 451 ft | 157 kts | 32° |
| 2026-04-25 21:28 | 28.98957 | -95.22629 | 572 ft | 158 kts | 11° |
| 2026-04-25 21:28 | 29.00056 | -95.22595 | 703 ft | 160 kts | 2° |
| 2026-04-25 21:28 | 29.01165 | -95.22641 | 852 ft | 158 kts | 2° |
| 2026-04-25 21:29 | 29.02268 | -95.22666 | 908 ft | 160 kts | 2° |
| 2026-04-25 21:29 | 29.03381 | -95.22649 | 934 ft | 162 kts | 4° |
| 2026-04-25 21:29 | 29.04509 | -95.22590 | 968 ft | 158 kts | 6° |
| 2026-04-25 21:29 | 29.05611 | -95.22493 | 948 ft | 162 kts | 7° |
| 2026-04-25 21:30 | 29.06737 | -95.22384 | 975 ft | 159 kts | 9° |
| 2026-04-25 21:30 | 29.07834 | -95.22256 | 964 ft | 159 kts | 8° |
| 2026-04-25 21:30 | 29.08939 | -95.22122 | 969 ft | 160 kts | 9° |
| 2026-04-25 21:30 | 29.09674 | -95.22031 | 970 ft | 161 kts | 9° |
| 2026-04-25 21:31 | 29.11147 | -95.21862 | 972 ft | 158 kts | 8° |
| 2026-04-25 21:31 | 29.12270 | -95.21737 | 959 ft | 164 kts | 7° |
| 2026-04-25 21:31 | 29.13396 | -95.21610 | 977 ft | 159 kts | 9° |
| 2026-04-25 21:31 | 29.14482 | -95.21478 | 966 ft | 160 kts | 7° |
| 2026-04-25 21:32 | 29.15592 | -95.21343 | 970 ft | 162 kts | 8° |
| 2026-04-25 21:32 | 29.16716 | -95.21202 | 972 ft | 160 kts | 8° |
| 2026-04-25 21:32 | 29.17826 | -95.21066 | 961 ft | 165 kts | 7° |
| 2026-04-25 21:32 | 29.18987 | -95.20932 | 972 ft | 169 kts | 7° |
| 2026-04-25 21:33 | 29.20117 | -95.20790 | 974 ft | 161 kts | 8° |
| 2026-04-25 21:33 | 29.21261 | -95.20650 | 970 ft | 167 kts | 7° |
| 2026-04-25 21:33 | 29.22394 | -95.20510 | 967 ft | 163 kts | 8° |
| 2026-04-25 21:33 | 29.23542 | -95.20374 | 973 ft | 165 kts | 11° |
| 2026-04-25 21:34 | 29.24666 | -95.20239 | 989 ft | 160 kts | 8° |
| 2026-04-25 21:34 | 29.25785 | -95.20104 | 994 ft | 164 kts | 8° |
| 2026-04-25 21:34 | 29.26935 | -95.19967 | 1004 ft | 166 kts | 9° |
| 2026-04-25 21:34 | 29.28058 | -95.19825 | 1010 ft | 160 kts | 10° |
| 2026-04-25 21:35 | 29.29191 | -95.19685 | 1005 ft | 165 kts | 9° |
| 2026-04-25 21:35 | 29.30300 | -95.19547 | 1005 ft | 162 kts | 8° |
| 2026-04-25 21:35 | 29.31414 | -95.19411 | 1010 ft | 158 kts | 8° |
| 2026-04-25 21:35 | 29.32521 | -95.19279 | 1000 ft | 164 kts | 8° |
| 2026-04-25 21:36 | 29.33638 | -95.19145 | 1013 ft | 158 kts | 8° |
| 2026-04-25 21:36 | 29.34730 | -95.19010 | 1008 ft | 157 kts | 8° |
| 2026-04-25 21:36 | 29.35832 | -95.18876 | 1010 ft | 158 kts | 8° |
| 2026-04-25 21:36 | 29.36562 | -95.18787 | 981 ft | 158 kts | 9° |
| 2026-04-25 21:37 | 29.37677 | -95.18642 | 850 ft | 166 kts | 8° |
| 2026-04-25 21:37 | 29.38430 | -95.18545 | 821 ft | 162 kts | 7° |
| 2026-04-25 21:37 | 29.39905 | -95.18357 | 774 ft | 159 kts | 9° |
| 2026-04-25 21:37 | 29.41007 | -95.18224 | 777 ft | 157 kts | 11° |
| 2026-04-25 21:38 | 29.42079 | -95.18093 | 754 ft | 156 kts | 11° |
| 2026-04-25 21:38 | 29.43175 | -95.17968 | 757 ft | 158 kts | 8° |
| 2026-04-25 21:38 | 29.44281 | -95.17841 | 761 ft | 161 kts | 11° |
| 2026-04-25 21:38 | 29.45394 | -95.17711 | 763 ft | 162 kts | 9° |
| 2026-04-25 21:39 | 29.46507 | -95.17575 | 763 ft | 157 kts | 9° |
| 2026-04-25 21:39 | 29.47613 | -95.17444 | 754 ft | 164 kts | 8° |
| 2026-04-25 21:39 | 29.48741 | -95.17308 | 758 ft | 161 kts | 9° |
| 2026-04-25 21:39 | 29.49851 | -95.17169 | 756 ft | 160 kts | 9° |
| 2026-04-25 21:40 | 29.50943 | -95.17033 | 770 ft | 153 kts | 11° |
| 2026-04-25 21:40 | 29.51953 | -95.16901 | 737 ft | 143 kts | 11° |
| 2026-04-25 21:40 | 29.52936 | -95.16764 | 608 ft | 137 kts | 11° |
| 2026-04-25 21:40 | 29.53896 | -95.16597 | 526 ft | 144 kts | 15° |
| 2026-04-25 21:41 | 29.54858 | -95.16344 | 517 ft | 138 kts | 17° |
| 2026-04-25 21:41 | 29.55794 | -95.16111 | 499 ft | 135 kts | 16° |
| 2026-04-25 21:41 | 29.56714 | -95.15913 | 489 ft | 135 kts | 16° |
| 2026-04-25 21:41 | 29.57642 | -95.15842 | 483 ft | 130 kts | 9° |
| 2026-04-25 21:42 | 29.58558 | -95.15857 | 472 ft | 135 kts | 4° |
| 2026-04-25 21:42 | 29.59516 | -95.15896 | 490 ft | 135 kts | 5° |
| 2026-04-25 21:42 | 29.60372 | -95.15939 | 505 ft | 111 kts | 4° |
| 2026-04-25 21:42 | 29.61078 | -95.16005 | 308 ft | 97 kts | 352° |
| 2026-04-25 21:43 | 29.61620 | -95.16373 | 161 ft | 85 kts | 302° |
| 2026-04-25 21:43 | 29.61604 | -95.16817 | 138 ft | 42 kts | 190° |
| 2026-04-25 21:43 | 29.61313 | -95.16855 | 95 ft | 41 kts | 175° |
| 2026-04-25 21:43 | 29.61113 | -95.16834 | 66 ft | 16 kts | 173° |
| 2026-04-25 21:44 | 29.61086 | -95.16832 | 56 ft | 2 kts | 176° |
| 2026-04-25 21:44 | 29.61087 | -95.16830 | 53 ft | 3 kts | 176° |
| 2026-04-25 21:44 | 29.61065 | -95.16824 | 35 ft | 1 kts | 184° |
| 2026-04-25 21:45 | 29.61064 | -95.16824 | 35 ft | 1 kts | 185° |
| 2026-04-25 21:45 | 29.61062 | -95.16824 | 36 ft | 0 kts | 178° |